Time;durP1;ratioP1;P1;durP2;ratioP2;P2;SDS_P1;SDS_P2;PMS_P1;PMS_P2;Temp;Humidity;BMP_temperature;BMP_pressure;BME280_temperature;BME280_humidity;BME280_pressure;Samples;Min_cycle;Max_cycle;Signal;HPM_P1;HPM_P2
2020/12/09 00:01:41;;;;;;;12.10;10.77;;;;;;;2.73;100.00;96513.44;5055593;28;20231;-89
2020/12/09 00:04:08;;;;;;;13.87;11.23;;;;;;;2.78;100.00;96526.97;5054185;28;20209;-90
2020/12/09 00:06:35;;;;;;;16.47;12.40;;;;;;;2.81;100.00;96525.94;5055735;28;20202;-90
2020/12/09 00:09:04;;;;;;;13.07;10.93;;;;;;;2.86;100.00;96531.63;5055188;28;20205;-89
2020/12/09 00:11:31;;;;;;;15.57;12.67;;;;;;;2.95;100.00;96535.38;5055276;28;20198;-88
2020/12/09 00:13:58;;;;;;;13.60;10.90;;;;;;;3.00;100.00;96535.88;5055264;28;20759;-90
2020/12/09 00:16:25;;;;;;;13.07;11.67;;;;;;;3.03;100.00;96535.66;5054881;28;20197;-89
2020/12/09 00:18:53;;;;;;;13.47;10.53;;;;;;;2.97;100.00;96534.31;5054765;28;20261;-89
2020/12/09 00:21:21;;;;;;;13.50;9.70;;;;;;;3.03;100.00;96536.50;5054644;28;20230;-90
2020/12/09 00:23:48;;;;;;;14.47;10.60;;;;;;;3.07;100.00;96532.75;5055403;28;20630;-89
2020/12/09 00:26:18;;;;;;;13.97;10.77;;;;;;;3.09;100.00;96541.28;5054817;28;20289;-89
2020/12/09 00:28:45;;;;;;;12.07;9.70;;;;;;;3.12;100.00;96547.16;5055072;28;20582;-88
2020/12/09 00:31:13;;;;;;;11.77;9.47;;;;;;;3.17;100.00;96537.31;5054827;28;20194;-89
2020/12/09 00:33:40;;;;;;;16.40;11.10;;;;;;;3.18;100.00;96542.38;5054885;28;20198;-89
2020/12/09 00:36:08;;;;;;;17.23;14.33;;;;;;;2.93;100.00;96535.47;5054775;28;20197;-89
2020/12/09 00:38:35;;;;;;;19.73;14.87;;;;;;;2.93;100.00;96534.63;5054402;28;20248;-89
2020/12/09 00:41:02;;;;;;;20.73;14.77;;;;;;;3.07;100.00;96539.72;5053835;28;20324;-89
2020/12/09 00:43:28;;;;;;;15.73;12.30;;;;;;;3.14;100.00;96543.53;5054795;28;20271;-89
2020/12/09 00:45:55;;;;;;;12.77;10.37;;;;;;;3.19;100.00;96548.44;5054526;28;20198;-89
2020/12/09 00:48:22;;;;;;;10.83;8.73;;;;;;;3.34;100.00;96545.59;5054214;28;20244;-89
2020/12/09 00:50:50;;;;;;;16.63;12.13;;;;;;;3.07;100.00;96548.31;5054249;28;20202;-89
2020/12/09 00:53:17;;;;;;;20.40;12.00;;;;;;;3.03;100.00;96546.88;5054641;28;20646;-89
2020/12/09 00:55:44;;;;;;;13.30;10.77;;;;;;;3.05;100.00;96537.22;5054159;28;20237;-90
2020/12/09 00:58:11;;;;;;;12.97;9.97;;;;;;;3.09;100.00;96528.28;5054468;28;20194;-89
2020/12/09 01:00:38;;;;;;;11.53;9.63;;;;;;;3.10;100.00;96529.13;5054152;28;20198;-89
2020/12/09 01:03:04;;;;;;;11.73;8.60;;;;;;;3.14;100.00;96516.75;5054667;28;20229;-90
2020/12/09 01:05:31;;;;;;;11.57;9.90;;;;;;;3.10;100.00;96518.72;5054681;28;20206;-90
2020/12/09 01:07:58;;;;;;;14.03;10.87;;;;;;;2.81;100.00;96529.34;5054189;28;20193;-89
2020/12/09 01:10:26;;;;;;;11.40;8.80;;;;;;;2.88;100.00;96537.56;5054702;28;20609;-89
2020/12/09 01:12:52;;;;;;;9.53;7.90;;;;;;;2.95;100.00;96537.97;5054925;28;20276;-90
2020/12/09 01:15:19;;;;;;;10.87;9.67;;;;;;;3.00;100.00;96533.28;5054538;28;20251;-89
2020/12/09 01:17:47;;;;;;;12.87;9.60;;;;;;;2.92;100.00;96532.97;5053746;28;20197;-90
2020/12/09 01:20:13;;;;;;;12.20;9.93;;;;;;;2.93;100.00;96538.06;5053863;28;20257;-90
2020/12/09 01:22:40;;;;;;;10.63;9.00;;;;;;;3.08;100.00;96530.97;5053897;28;20218;-90
2020/12/09 01:25:07;;;;;;;12.30;10.00;;;;;;;3.07;100.00;96522.34;5054106;28;20194;-90
2020/12/09 01:27:35;;;;;;;12.17;9.77;;;;;;;3.03;100.00;96522.69;5053617;28;20237;-90
2020/12/09 01:30:02;;;;;;;12.63;9.77;;;;;;;3.13;100.00;96522.88;5053539;28;20198;-89
2020/12/09 01:32:29;;;;;;;10.57;8.90;;;;;;;3.27;100.00;96527.94;5053484;28;20193;-90
2020/12/09 01:34:55;;;;;;;10.97;8.80;;;;;;;3.24;100.00;96528.16;5053855;28;20197;-89
2020/12/09 01:37:22;;;;;;;8.67;7.57;;;;;;;3.03;100.00;96531.31;5053850;28;20626;-91
2020/12/09 01:39:49;;;;;;;8.37;6.63;;;;;;;3.20;100.00;96527.53;5053617;28;20289;-90
2020/12/09 01:42:16;;;;;;;8.63;6.70;;;;;;;3.13;100.00;96523.72;5054120;28;20229;-89
2020/12/09 01:44:44;;;;;;;8.27;6.97;;;;;;;3.14;100.00;96519.34;5053519;28;20208;-90
2020/12/09 01:47:11;;;;;;;13.30;8.27;;;;;;;3.22;100.00;96514.44;5053636;28;20285;-90
2020/12/09 01:49:39;;;;;;;10.60;9.13;;;;;;;3.32;100.00;96513.69;5053203;28;20284;-90
2020/12/09 01:52:06;;;;;;;8.30;7.47;;;;;;;3.35;100.00;96504.84;5053280;28;20205;-90
2020/12/09 01:54:33;;;;;;;8.80;7.47;;;;;;;3.48;100.00;96504.81;5053475;28;20194;-90
2020/12/09 01:57:08;;;;;;;10.47;7.87;;;;;;;3.49;100.00;96496.91;5053407;28;20571;-90
2020/12/09 01:59:36;;;;;;;8.27;7.40;;;;;;;3.25;100.00;96503.84;5053063;28;20232;-89
2020/12/09 02:02:05;;;;;;;7.73;6.93;;;;;;;3.31;100.00;96493.84;5053308;28;20221;-90
2020/12/09 02:04:32;;;;;;;10.43;8.70;;;;;;;3.31;100.00;96493.84;5053278;28;20614;-90
2020/12/09 02:06:59;;;;;;;9.07;7.90;;;;;;;3.38;100.00;96494.25;5053141;28;20244;-90
2020/12/09 02:09:26;;;;;;;11.17;8.00;;;;;;;3.38;100.00;96494.25;5053334;28;20259;-90
2020/12/09 02:11:54;;;;;;;8.80;7.67;;;;;;;3.19;100.00;96499.09;5053018;28;20236;-90
2020/12/09 02:14:21;;;;;;;7.63;6.83;;;;;;;3.20;100.00;96503.34;5053041;28;20217;-90
2020/12/09 02:16:50;;;;;;;8.63;7.07;;;;;;;3.14;100.00;96493.38;5052936;28;20202;-90
2020/12/09 02:19:18;;;;;;;8.93;7.13;;;;;;;3.27;100.00;96486.38;5052913;28;20198;-88
2020/12/09 02:21:46;;;;;;;8.90;7.03;;;;;;;3.26;100.00;96488.16;5052831;28;20269;-90
2020/12/09 02:24:13;;;;;;;7.57;6.87;;;;;;;3.29;100.00;96495.75;5052869;28;20596;-90
2020/12/09 02:26:44;;;;;;;8.93;7.97;;;;;;;3.30;100.00;96499.16;5052192;28;20277;-89
2020/12/09 02:29:12;;;;;;;7.57;6.43;;;;;;;3.38;100.00;96502.03;5052820;28;20225;-89
2020/12/09 02:31:39;;;;;;;8.03;7.23;;;;;;;3.38;100.00;96496.84;5053085;28;20194;-90
2020/12/09 02:34:07;;;;;;;9.57;7.70;;;;;;;3.34;100.00;96495.41;5052790;28;20255;-89
2020/12/09 02:36:35;;;;;;;9.77;7.73;;;;;;;3.45;100.00;96490.25;5052588;28;20204;-89
2020/12/09 02:39:05;;;;;;;9.00;7.17;;;;;;;3.47;100.00;96487.56;5035463;28;20589;-91
2020/12/09 02:41:32;;;;;;;8.07;7.23;;;;;;;3.43;100.00;96481.78;5043595;28;20300;-91
2020/12/09 02:43:59;;;;;;;9.90;7.50;;;;;;;3.30;100.00;96484.41;5052095;28;20233;-92
2020/12/09 02:46:25;;;;;;;7.97;7.17;;;;;;;3.51;100.00;96484.63;5052264;28;20259;-90
2020/12/09 02:48:53;;;;;;;8.33;6.87;;;;;;;3.55;100.00;96488.66;5052341;28;20201;-91
2020/12/09 02:51:19;;;;;;;8.90;7.10;;;;;;;3.53;100.00;96489.72;5052001;28;20688;-91
2020/12/09 02:53:46;;;;;;;7.90;7.10;;;;;;;3.53;100.00;96493.16;5050785;28;20213;-90
2020/12/09 02:56:17;;;;;;;9.23;6.93;;;;;;;3.48;100.00;96499.63;5051588;28;20202;-91
2020/12/09 02:58:43;;;;;;;8.07;7.27;;;;;;;3.49;100.00;96504.69;5052347;28;20237;-91
2020/12/09 03:01:10;;;;;;;7.03;6.33;;;;;;;3.42;100.00;96495.69;5052010;28;20234;-89
2020/12/09 03:03:37;;;;;;;8.60;6.37;;;;;;;3.33;100.00;96483.34;5051805;28;20205;-92
2020/12/09 03:06:04;;;;;;;7.23;5.47;;;;;;;3.28;100.00;96488.03;5051803;28;20190;-90
2020/12/09 03:08:31;;;;;;;6.37;5.33;;;;;;;3.40;100.00;96481.97;5051372;28;20251;-89
2020/12/09 03:10:57;;;;;;;6.43;5.20;;;;;;;3.48;100.00;96478.84;5052166;28;20255;-91
2020/12/09 03:13:25;;;;;;;6.37;5.27;;;;;;;3.51;100.00;96489.00;5048521;28;20683;-90
2020/12/09 03:15:52;;;;;;;7.20;5.53;;;;;;;3.42;100.00;96498.28;5038935;28;20555;-91
2020/12/09 03:18:19;;;;;;;7.40;6.00;;;;;;;3.43;100.00;96504.28;5051654;28;20591;-91
2020/12/09 03:20:46;;;;;;;9.07;6.83;;;;;;;3.39;100.00;96505.47;5051038;28;20233;-91
2020/12/09 03:23:13;;;;;;;8.00;7.00;;;;;;;3.31;100.00;96511.19;5051496;28;20697;-90
2020/12/09 03:25:40;;;;;;;9.43;6.90;;;;;;;3.39;100.00;96511.47;5051434;28;20194;-91
2020/12/09 03:28:06;;;;;;;7.63;6.43;;;;;;;3.38;100.00;96503.81;5051694;28;20674;-91
2020/12/09 03:30:34;;;;;;;10.17;6.87;;;;;;;3.47;100.00;96514.38;5051517;28;20198;-91
2020/12/09 03:33:02;;;;;;;8.03;6.97;;;;;;;3.53;100.00;96511.34;5051502;28;20194;-91
2020/12/09 03:35:29;;;;;;;9.67;6.40;;;;;;;3.54;100.00;96520.81;5051782;28;20263;-91
2020/12/09 03:37:56;;;;;;;6.20;5.13;;;;;;;3.60;100.00;96508.31;5051612;28;20667;-91
2020/12/09 03:40:22;;;;;;;7.37;6.50;;;;;;;3.51;100.00;96508.03;5055094;28;20197;-90
2020/12/09 03:42:49;;;;;;;6.97;5.67;;;;;;;3.45;100.00;96505.84;5055192;28;20304;-91
2020/12/09 03:45:16;;;;;;;6.23;5.63;;;;;;;3.51;100.00;96499.41;5054814;28;20234;-90
2020/12/09 03:47:44;;;;;;;6.07;5.57;;;;;;;3.49;100.00;96511.66;5054522;28;20237;-90
2020/12/09 03:50:11;;;;;;;6.53;5.17;;;;;;;3.45;100.00;96511.06;5054818;28;20212;-89
2020/12/09 03:52:37;;;;;;;7.67;5.87;;;;;;;3.60;100.00;96516.09;5054854;28;20240;-91
2020/12/09 03:55:04;;;;;;;5.60;4.90;;;;;;;3.57;100.00;96514.56;5054846;28;20749;-91
2020/12/09 03:57:31;;;;;;;6.40;5.00;;;;;;;3.72;100.00;96512.63;5054702;28;20198;-91
2020/12/09 03:59:58;;;;;;;6.27;4.97;;;;;;;3.78;100.00;96507.00;5054430;28;20288;-90
2020/12/09 04:02:25;;;;;;;5.13;4.63;;;;;;;3.79;100.00;96516.44;5054352;28;20264;-89
2020/12/09 04:08:12;;;;;;;12.70;10.60;;;;;;;3.93;99.92;96516.28;4891957;29;20723;-90
2020/12/09 04:10:39;;;;;;;12.27;10.03;;;;;;;3.89;99.45;96509.63;4969373;28;20213;-89
2020/12/09 04:13:06;;;;;;;32.07;23.40;;;;;;;3.76;100.00;96511.47;4973819;28;20288;-88
2020/12/09 04:15:33;;;;;;;28.27;19.27;;;;;;;3.76;99.89;96514.88;4973943;28;20260;-91
2020/12/09 04:17:59;;;;;;;13.30;11.87;;;;;;;3.60;100.00;96523.91;4974014;28;20718;-90
2020/12/09 04:20:26;;;;;;;12.90;10.77;;;;;;;3.52;100.00;96527.88;4973483;28;20648;-91
2020/12/09 04:22:59;;;;;;;10.80;9.70;;;;;;;3.58;100.00;96526.63;4973644;28;20288;-89
2020/12/09 04:25:30;;;;;;;9.43;8.53;;;;;;;3.65;100.00;96521.81;4973945;28;20201;-93
2020/12/09 04:27:57;;;;;;;8.90;7.33;;;;;;;3.72;100.00;96520.44;4973869;28;20358;-92
2020/12/09 04:30:25;;;;;;;13.77;9.80;;;;;;;3.66;100.00;96523.47;4974057;28;20201;-90
2020/12/09 04:32:52;;;;;;;18.10;14.60;;;;;;;3.58;100.00;96529.22;4973699;28;20256;-91
2020/12/09 04:35:19;;;;;;;16.07;13.30;;;;;;;3.60;100.00;96529.91;4973234;28;20292;-90
2020/12/09 04:37:46;;;;;;;12.07;10.17;;;;;;;3.55;100.00;96530.25;5038611;28;20293;-91
2020/12/09 04:40:14;;;;;;;10.70;8.77;;;;;;;3.57;100.00;96528.38;5054558;28;20190;-90
2020/12/09 04:42:55;;;;;;;11.57;9.60;;;;;;;3.65;100.00;96530.44;5054361;28;20236;-85
2020/12/09 04:45:22;;;;;;;13.40;10.00;;;;;;;3.73;100.00;96532.47;5054733;28;20290;-91
2020/12/09 04:48:05;;;;;;;14.70;11.47;;;;;;;3.83;100.00;96532.66;5054267;28;20691;-90
2020/12/09 04:50:37;;;;;;;10.13;8.30;;;;;;;3.54;100.00;96530.38;5053764;28;20182;-89
2020/12/09 04:53:11;;;;;;;7.97;7.17;;;;;;;3.67;100.00;96515.56;5054318;28;20268;-90
2020/12/09 04:55:50;;;;;;;8.27;6.83;;;;;;;3.75;100.00;96518.44;5054379;28;20186;-90
2020/12/09 04:58:29;;;;;;;9.47;7.30;;;;;;;3.65;100.00;96521.81;5054474;28;20701;-90
2020/12/09 05:01:05;;;;;;;9.40;8.50;;;;;;;3.65;100.00;96521.81;5054689;28;20568;-90
2020/12/09 05:03:40;;;;;;;10.00;7.30;;;;;;;3.68;100.00;96526.78;5054228;28;20602;-89
2020/12/09 05:06:08;;;;;;;21.97;16.17;;;;;;;3.79;100.00;96530.28;5053968;28;20186;-90
2020/12/09 05:08:37;;;;;;;16.00;10.97;;;;;;;3.64;100.00;96533.13;5053950;28;20277;-89
2020/12/09 05:11:07;;;;;;;10.90;7.43;;;;;;;3.65;100.00;96535.63;5053894;28;20198;-90
2020/12/09 05:13:36;;;;;;;9.67;8.13;;;;;;;3.67;100.00;96544.16;5054428;28;20625;-90
2020/12/09 05:16:04;;;;;;;16.57;11.30;;;;;;;3.73;100.00;96542.88;5054090;28;20562;-90
2020/12/09 05:18:42;;;;;;;38.83;27.00;;;;;;;3.75;100.00;96539.25;5053931;28;20736;-89
2020/12/09 05:21:12;;;;;;;33.33;26.60;;;;;;;3.79;100.00;96550.25;5053300;28;20237;-90
2020/12/09 05:23:44;;;;;;;43.17;30.43;;;;;;;3.73;100.00;96543.69;5053451;28;20287;-88
2020/12/09 05:26:18;;;;;;;33.07;24.87;;;;;;;3.73;100.00;96543.69;5053622;28;20190;-88
2020/12/09 05:28:46;;;;;;;37.40;26.77;;;;;;;3.80;100.00;96537.13;5053587;28;20185;-88
2020/12/09 05:31:23;;;;;;;25.27;18.43;;;;;;;3.77;100.00;96539.94;5054452;28;20674;-89
2020/12/09 05:33:49;;;;;;;13.07;11.23;;;;;;;3.53;100.00;96544.28;5053590;28;20263;-89
2020/12/09 05:36:16;;;;;;;16.03;12.90;;;;;;;3.50;100.00;96537.56;5053864;28;20642;-89
2020/12/09 05:38:43;;;;;;;14.87;13.20;;;;;;;3.54;100.00;96527.78;5053669;28;20198;-89
2020/12/09 05:41:11;;;;;;;21.47;16.60;;;;;;;3.61;100.00;96528.19;5053630;28;20244;-89
2020/12/09 05:43:43;;;;;;;32.43;22.17;;;;;;;3.62;100.00;96532.44;5053362;28;20194;-89
2020/12/09 05:46:11;;;;;;;30.80;20.87;;;;;;;3.72;100.00;96533.44;5053241;28;20252;-90
2020/12/09 05:48:38;;;;;;;17.73;14.77;;;;;;;3.63;100.00;96531.47;5053247;28;20194;-90
2020/12/09 05:51:06;;;;;;;19.83;16.00;;;;;;;3.73;100.00;96532.47;5053186;28;20194;-89
2020/12/09 05:53:35;;;;;;;22.40;18.40;;;;;;;3.62;100.00;96535.84;5053417;28;20201;-90
2020/12/09 05:56:12;;;;;;;14.50;12.87;;;;;;;3.50;100.00;96531.53;5052855;28;20251;-89
2020/12/09 05:58:41;;;;;;;10.90;9.33;;;;;;;3.53;100.00;96528.69;5052969;28;20197;-89
2020/12/09 06:01:11;;;;;;;10.70;8.00;;;;;;;3.34;100.00;96532.59;5053054;28;20209;-88
2020/12/09 06:03:39;;;;;;;11.10;8.13;;;;;;;3.38;100.00;96533.22;5052867;28;20225;-90
2020/12/09 06:06:17;;;;;;;11.67;9.77;;;;;;;3.30;100.00;96533.75;5053143;28;20248;-90
2020/12/09 06:08:46;;;;;;;14.33;9.73;;;;;;;3.39;100.00;96532.25;5053130;28;20194;-89
2020/12/09 06:11:14;;;;;;;10.77;9.67;;;;;;;3.54;100.00;96531.19;5052938;28;20193;-89
2020/12/09 06:13:41;;;;;;;36.47;30.23;;;;;;;3.61;100.00;96546.38;5052759;28;20193;-88
2020/12/09 06:16:09;;;;;;;25.73;18.10;;;;;;;3.72;100.00;96543.81;5053081;28;20562;-90
2020/12/09 06:18:39;;;;;;;18.27;12.43;;;;;;;3.65;100.00;96543.44;5053282;28;20233;-89
2020/12/09 06:21:06;;;;;;;8.30;6.07;;;;;;;3.54;100.00;96544.19;5052573;28;20269;-90
2020/12/09 06:23:34;;;;;;;11.90;8.97;;;;;;;3.54;100.00;96548.56;5052703;28;20225;-89
2020/12/09 06:26:03;;;;;;;16.20;8.87;;;;;;;3.69;99.15;96550.06;5052683;28;20253;-89
2020/12/09 06:28:31;;;;;;;5.93;5.10;;;;;;;3.69;98.92;96541.44;5053311;28;20849;-89
2020/12/09 06:31:10;;;;;;;8.33;7.47;;;;;;;3.61;99.99;96543.78;5052740;28;20225;-89
2020/12/09 06:33:39;;;;;;;13.17;11.80;;;;;;;3.70;100.00;96543.09;5053015;28;20184;-90
2020/12/09 06:36:16;;;;;;;16.93;15.27;;;;;;;3.62;100.00;96546.25;5052707;28;20204;-90
2020/12/09 06:39:16;;;;;;;14.03;9.10;;;;;;;3.65;100.00;96545.22;5052799;28;20724;-90
2020/12/09 06:42:05;;;;;;;19.23;11.83;;;;;;;3.64;100.00;96551.31;5053118;28;20244;-90
2020/12/09 06:44:33;;;;;;;14.43;11.63;;;;;;;3.77;99.74;96555.53;5052765;28;20194;-89
2020/12/09 06:47:01;;;;;;;16.30;14.57;;;;;;;3.66;100.00;96549.44;5052934;28;20652;-90
2020/12/09 06:49:39;;;;;;;6.10;5.50;;;;;;;3.52;100.00;96543.47;5052525;28;20244;-89
2020/12/09 06:52:28;;;;;;;8.63;7.73;;;;;;;3.67;100.00;96544.16;5052485;28;20192;-90
2020/12/09 06:54:55;;;;;;;14.10;12.13;;;;;;;3.73;98.38;96540.28;5052788;28;20229;-90
2020/12/09 06:57:26;;;;;;;9.00;8.10;;;;;;;3.70;98.23;96550.88;5052927;28;20202;-90
2020/12/09 07:00:15;;;;;;;8.93;6.67;;;;;;;3.77;99.14;96555.53;5052477;28;20226;-89
2020/12/09 07:02:43;;;;;;;6.67;6.07;;;;;;;3.88;97.97;96543.53;5052609;28;20292;-90
2020/12/09 07:05:13;;;;;;;15.50;11.87;;;;;;;3.68;99.00;96543.22;5052417;28;20198;-90
2020/12/09 07:07:45;;;;;;;6.77;5.70;;;;;;;3.73;99.20;96553.28;5052416;28;20178;-89
2020/12/09 07:10:26;;;;;;;6.40;5.73;;;;;;;3.95;98.79;96557.75;5052627;28;20194;-90
2020/12/09 07:13:07;;;;;;;5.90;4.70;;;;;;;4.03;99.68;96564.09;5052754;28;20182;-90
2020/12/09 07:15:35;;;;;;;6.67;5.97;;;;;;;3.95;99.29;96562.97;5056539;28;20198;-89
2020/12/09 07:18:02;;;;;;;17.13;13.90;;;;;;;3.97;99.40;96564.50;5056262;28;20197;-91
2020/12/09 07:20:30;;;;;;;5.23;4.73;;;;;;;4.00;98.55;96564.31;5055965;28;20793;-90
2020/12/09 07:22:57;;;;;;;6.30;5.70;;;;;;;4.12;97.80;96557.41;5056219;28;20257;-89
2020/12/09 07:25:24;;;;;;;3.57;3.03;;;;;;;4.16;96.74;96558.00;5055933;28;20666;-90
2020/12/09 07:27:51;;;;;;;6.93;6.20;;;;;;;4.13;98.48;96555.63;5056227;28;20238;-89
2020/12/09 07:30:19;;;;;;;5.33;4.83;;;;;;;4.13;98.49;96553.03;5056638;28;20685;-90
2020/12/09 07:32:54;;;;;;;4.27;3.60;;;;;;;4.14;97.63;96539.06;5055754;28;20251;-91
2020/12/09 07:35:21;;;;;;;3.13;2.83;;;;;;;4.13;98.79;96547.81;5055959;28;20202;-92
2020/12/09 07:37:53;;;;;;;5.90;5.30;;;;;;;4.16;98.91;96547.59;5057014;28;20732;-93
2020/12/09 07:40:24;;;;;;;7.30;6.60;;;;;;;4.08;98.18;96550.72;5056079;28;20209;-91
2020/12/09 07:43:04;;;;;;;4.70;4.30;;;;;;;3.98;98.61;96541.94;5055783;28;20206;-91
2020/12/09 07:45:38;;;;;;;5.03;4.60;;;;;;;4.08;98.94;96547.31;5055495;28;20658;-90
2020/12/09 07:48:08;;;;;;;14.77;11.60;;;;;;;4.05;99.30;96541.41;5052438;28;20193;-90
2020/12/09 07:50:37;;;;;;;10.30;8.87;;;;;;;4.16;98.51;96538.00;5055849;28;20929;-91
2020/12/09 07:53:11;;;;;;;6.77;5.30;;;;;;;4.20;99.02;96541.22;5055446;28;20197;-91
2020/12/09 07:55:38;;;;;;;4.50;4.07;;;;;;;4.32;98.46;96537.69;5055624;28;20186;-91
2020/12/09 07:58:06;;;;;;;5.10;3.67;;;;;;;4.36;97.25;96539.13;5055763;28;20191;-91
2020/12/09 08:00:36;;;;;;;6.23;5.20;;;;;;;4.33;99.44;96539.38;5055204;28;20194;-91
2020/12/09 08:03:04;;;;;;;4.87;4.23;;;;;;;4.34;99.13;96543.63;5055219;28;20222;-90
2020/12/09 08:05:35;;;;;;;4.60;3.67;;;;;;;4.35;97.01;96547.06;5055429;28;20200;-90
2020/12/09 08:08:03;;;;;;;5.30;4.80;;;;;;;4.28;97.48;96546.69;5055197;28;20248;-90
2020/12/09 08:10:32;;;;;;;4.27;3.87;;;;;;;4.24;98.79;96551.28;5055253;28;20205;-91
2020/12/09 08:13:07;;;;;;;3.87;3.57;;;;;;;4.40;97.73;96563.16;5054839;28;20206;-91
2020/12/09 08:15:35;;;;;;;3.13;2.83;;;;;;;4.55;97.19;96561.22;5055021;28;20178;-90
2020/12/09 08:18:03;;;;;;;2.70;2.50;;;;;;;4.52;97.03;96564.84;5055114;28;20586;-92
2020/12/09 08:20:30;;;;;;;4.87;3.10;;;;;;;4.59;97.21;96568.66;5054713;28;20299;-90
2020/12/09 08:23:02;;;;;;;6.33;2.80;;;;;;;4.57;96.58;96564.50;5054792;28;20218;-90
2020/12/09 08:25:31;;;;;;;2.80;2.60;;;;;;;4.56;96.95;96555.88;5053755;28;20708;-90
2020/12/09 08:28:06;;;;;;;4.20;3.20;;;;;;;4.62;97.83;96546.78;5055116;28;20198;-90
2020/12/09 08:30:33;;;;;;;4.07;3.20;;;;;;;4.61;99.65;96542.53;5054769;28;20181;-90
2020/12/09 08:33:15;;;;;;;4.43;3.17;;;;;;;4.64;100.00;96550.94;5054715;28;20198;-91
2020/12/09 08:35:48;;;;;;;4.70;4.10;;;;;;;4.67;100.00;96548.09;5053106;28;20201;-92
2020/12/09 08:38:29;;;;;;;11.03;8.50;;;;;;;4.60;100.00;96544.28;5055049;28;20186;-91
2020/12/09 08:40:59;;;;;;;23.73;16.90;;;;;;;4.61;100.00;96542.53;5054670;28;20198;-91
2020/12/09 08:43:27;;;;;;;24.97;14.50;;;;;;;4.48;100.00;96545.22;5055038;28;20225;-91
2020/12/09 08:45:54;;;;;;;6.47;5.13;;;;;;;4.44;100.00;96543.78;5054881;28;20205;-90
2020/12/09 08:48:21;;;;;;;6.27;5.67;;;;;;;4.49;100.00;96542.47;5054707;28;20198;-90
2020/12/09 08:50:49;;;;;;;10.40;6.83;;;;;;;4.38;100.00;96547.66;5054576;28;20186;-89
2020/12/09 08:53:16;;;;;;;8.40;7.53;;;;;;;4.39;100.00;96544.09;5054249;28;20194;-90
2020/12/09 08:55:43;;;;;;;16.77;12.43;;;;;;;4.40;100.00;96540.59;5054602;28;20233;-91
2020/12/09 08:58:12;;;;;;;6.13;5.53;;;;;;;4.28;100.00;96525.88;5054338;28;20204;-90
2020/12/09 09:00:40;;;;;;;6.90;6.10;;;;;;;4.38;100.00;96523.41;5054723;28;20209;-90
2020/12/09 09:03:10;;;;;;;7.10;5.63;;;;;;;4.40;100.00;96511.97;5054245;28;20316;-92
2020/12/09 09:05:38;;;;;;;6.73;6.03;;;;;;;4.39;100.00;96510.28;5054045;28;20190;-91
2020/12/09 09:08:04;;;;;;;6.93;5.93;;;;;;;4.43;100.00;96514.31;5054060;28;20673;-91
2020/12/09 09:10:31;;;;;;;10.00;9.00;;;;;;;4.44;100.00;96522.97;5053848;28;20212;-91
2020/12/09 09:12:58;;;;;;;10.33;8.00;;;;;;;4.39;100.00;96522.47;5054253;28;20689;-90
2020/12/09 09:15:25;;;;;;;9.70;8.67;;;;;;;4.39;100.00;96507.69;5054049;28;20641;-90
2020/12/09 09:17:52;;;;;;;9.50;7.80;;;;;;;4.28;100.00;96518.88;5054102;28;20190;-90
2020/12/09 09:20:19;;;;;;;9.40;6.83;;;;;;;4.26;100.00;96518.19;5053973;28;20230;-90
2020/12/09 09:22:46;;;;;;;11.07;8.83;;;;;;;4.18;100.00;96517.91;5053643;28;20224;-91
2020/12/09 09:25:13;;;;;;;8.77;7.60;;;;;;;4.25;100.00;96507.88;5053847;28;20274;-90
2020/12/09 09:27:40;;;;;;;10.20;7.93;;;;;;;4.19;100.00;96501.38;5053967;28;20201;-91
2020/12/09 09:30:08;;;;;;;10.57;8.00;;;;;;;4.25;100.00;96500.06;5053573;28;20202;-90
2020/12/09 09:32:36;;;;;;;11.90;8.13;;;;;;;4.21;100.00;96493.44;5053846;28;20194;-90
2020/12/09 09:35:04;;;;;;;10.43;8.77;;;;;;;4.26;100.00;96496.50;5053936;28;20225;-88
2020/12/09 09:37:30;;;;;;;8.90;8.00;;;;;;;4.24;100.00;96496.66;5053674;28;20193;-91
2020/12/09 09:39:57;;;;;;;11.77;9.13;;;;;;;4.25;100.00;96492.25;5053589;28;20678;-91
2020/12/09 09:42:24;;;;;;;10.97;8.53;;;;;;;4.29;100.00;96491.09;5053304;28;20261;-90
2020/12/09 09:44:51;;;;;;;15.50;10.97;;;;;;;4.28;100.00;96495.47;5053280;28;20237;-90
2020/12/09 09:47:18;;;;;;;24.47;16.23;;;;;;;4.35;100.00;96489.81;5053351;28;20196;-90
2020/12/09 09:49:46;;;;;;;35.07;18.37;;;;;;;4.32;100.00;96485.66;5053343;28;20194;-91
2020/12/09 09:52:13;;;;;;;36.13;22.60;;;;;;;4.27;100.00;96474.78;5053290;28;20200;-90
2020/12/09 09:54:40;;;;;;;45.40;26.60;;;;;;;4.23;100.00;96481.97;5053250;28;20746;-90
2020/12/09 09:57:06;;;;;;;22.73;15.20;;;;;;;4.24;100.00;96480.22;5053152;28;20204;-90
2020/12/09 09:59:33;;;;;;;20.20;15.63;;;;;;;4.27;100.00;96479.97;5053407;28;20198;-90
2020/12/09 10:02:00;;;;;;;20.83;16.00;;;;;;;4.41;100.00;96473.75;5053021;28;20587;-90
2020/12/09 10:04:27;;;;;;;16.10;12.67;;;;;;;4.46;100.00;96472.44;5053725;28;20493;-92
2020/12/09 10:06:54;;;;;;;25.63;15.13;;;;;;;4.32;100.00;96475.25;5053023;28;20233;-90
2020/12/09 10:09:21;;;;;;;24.50;17.60;;;;;;;4.24;100.00;96467.19;5053184;28;20206;-91
2020/12/09 10:11:48;;;;;;;16.93;12.03;;;;;;;4.06;100.00;96469.41;5053158;28;20581;-90
2020/12/09 10:14:14;;;;;;;13.47;10.27;;;;;;;3.84;100.00;96462.31;5052811;28;20198;-90
2020/12/09 10:16:43;;;;;;;14.07;10.07;;;;;;;3.98;100.00;96466.50;5052830;28;20190;-90
2020/12/09 10:19:10;;;;;;;14.70;10.03;;;;;;;3.88;100.00;96457.72;5053070;28;20205;-90
2020/12/09 10:21:37;;;;;;;12.50;10.37;;;;;;;3.96;100.00;96458.84;5053123;28;20324;-91
2020/12/09 10:24:06;;;;;;;14.43;10.90;;;;;;;3.98;100.00;96451.78;5052959;28;20721;-90
2020/12/09 10:26:35;;;;;;;15.63;11.90;;;;;;;4.07;100.00;96449.41;5053024;28;20194;-89
2020/12/09 10:29:07;;;;;;;19.20;14.60;;;;;;;4.24;100.00;96436.81;5052943;28;20662;-89
2020/12/09 10:31:37;;;;;;;18.07;13.63;;;;;;;4.32;100.00;96436.22;5052616;28;20193;-89
2020/12/09 10:34:04;;;;;;;28.20;15.03;;;;;;;4.30;100.00;96432.91;5052628;28;20202;-90
2020/12/09 10:36:31;;;;;;;20.17;15.67;;;;;;;4.38;100.00;96430.56;5052581;28;20205;-89
2020/12/09 10:38:58;;;;;;;23.97;14.43;;;;;;;4.47;100.00;96426.44;5052614;28;20197;-89
2020/12/09 10:41:26;;;;;;;19.30;13.80;;;;;;;4.46;100.00;96420.38;5052560;28;20198;-89
2020/12/09 10:43:53;;;;;;;27.83;15.87;;;;;;;4.48;100.00;96415.06;5052750;28;20694;-89
2020/12/09 10:46:21;;;;;;;27.30;19.47;;;;;;;4.43;100.00;96405.00;5052483;28;20701;-89
2020/12/09 10:48:48;;;;;;;22.80;17.17;;;;;;;4.46;100.00;96401.34;5054337;28;20217;-90
2020/12/09 10:51:16;;;;;;;24.50;15.63;;;;;;;4.43;100.00;96391.16;5056854;28;20206;-89
2020/12/09 10:53:42;;;;;;;27.50;20.03;;;;;;;4.46;100.00;96394.34;5056829;28;20202;-89
2020/12/09 10:56:09;;;;;;;28.80;13.50;;;;;;;4.55;100.00;96397.22;5056834;28;20366;-90
2020/12/09 10:58:37;;;;;;;34.23;20.30;;;;;;;4.51;100.00;96394.84;5056961;28;20198;-89
2020/12/09 11:01:04;;;;;;;28.97;16.00;;;;;;;4.50;100.00;96390.59;5056390;28;20252;-89
2020/12/09 11:03:30;;;;;;;24.00;14.80;;;;;;;4.59;100.00;96393.44;5056268;28;20232;-88
2020/12/09 11:05:58;;;;;;;26.47;16.17;;;;;;;4.67;100.00;96391.88;5056267;28;20204;-89
2020/12/09 11:08:25;;;;;;;23.33;15.23;;;;;;;4.61;100.00;96394.97;5056589;28;20261;-88
2020/12/09 11:10:52;;;;;;;32.07;18.40;;;;;;;4.64;100.00;96401.69;5056645;28;20204;-89
2020/12/09 11:13:19;;;;;;;27.37;16.93;;;;;;;4.58;100.00;96399.59;5056245;28;20202;-88
2020/12/09 11:15:46;;;;;;;22.53;15.17;;;;;;;4.51;100.00;96401.84;5056292;28;20294;-90
2020/12/09 11:18:13;;;;;;;13.30;10.57;;;;;;;4.38;100.00;96393.31;5056195;28;20201;-89
2020/12/09 11:20:40;;;;;;;13.57;10.43;;;;;;;4.19;100.00;96399.06;5055849;28;20240;-89
2020/12/09 11:23:10;;;;;;;11.97;9.33;;;;;;;4.17;100.00;96393.16;5055719;28;20237;-89
2020/12/09 11:25:37;;;;;;;12.83;9.33;;;;;;;4.26;100.00;96392.44;5056104;28;20197;-89
2020/12/09 11:28:04;;;;;;;11.97;9.37;;;;;;;4.20;100.00;96382.53;5055877;28;20236;-88
2020/12/09 11:30:31;;;;;;;14.27;11.17;;;;;;;4.16;100.00;96379.34;5055865;28;20201;-89
2020/12/09 11:32:58;;;;;;;22.23;15.23;;;;;;;4.18;100.00;96385.22;5056038;28;20574;-90
2020/12/09 11:35:25;;;;;;;26.63;17.97;;;;;;;4.32;100.00;96384.19;5056006;28;20701;-89
2020/12/09 11:37:54;;;;;;;24.40;17.60;;;;;;;4.37;100.00;96382.06;5056170;28;20753;-87